createdAt,value
2018-08-22T00:00:02.103Z,6.80
2018-08-22T00:05:05.783Z,3.80
2018-08-22T00:10:09.646Z,3.57
2018-08-22T00:15:13.303Z,4.63
2018-08-22T00:20:16.996Z,2.60
2018-08-22T00:25:21.136Z,2.33
2018-08-22T00:30:29.457Z,2.80
2018-08-22T00:35:33.086Z,2.50
2018-08-22T00:40:36.631Z,4.23
2018-08-22T00:45:40.189Z,4.70
2018-08-22T00:50:43.724Z,3.43
2018-08-22T00:55:47.756Z,3.30
2018-08-22T01:00:51.385Z,3.50
2018-08-22T01:05:54.916Z,5.00
2018-08-22T01:10:58.437Z,3.57
2018-08-22T01:16:02.021Z,4.97
2018-08-22T01:21:06.196Z,3.83
2018-08-22T01:26:09.875Z,4.53
2018-08-22T01:31:13.561Z,4.20
2018-08-22T01:36:17.246Z,4.07
2018-08-22T01:41:21.593Z,4.77
2018-08-22T01:46:25.248Z,5.20
2018-08-22T01:51:28.846Z,4.20
2018-08-22T01:56:32.634Z,4.00
2018-08-22T02:01:36.173Z,6.93
2018-08-22T02:06:39.725Z,4.20
2018-08-22T02:11:43.279Z,3.90
2018-08-22T02:16:46.826Z,6.20
2018-08-22T02:21:50.384Z,4.40
2018-08-22T02:26:53.913Z,4.90
2018-08-22T02:31:57.535Z,5.17
2018-08-22T02:37:01.120Z,5.27
2018-08-22T02:42:05.156Z,4.37
2018-08-22T02:47:08.679Z,3.37
2018-08-22T02:52:12.167Z,3.77
2018-08-22T02:57:15.998Z,5.50
2018-08-22T03:02:19.605Z,3.60
2018-08-22T03:07:23.138Z,4.97
2018-08-22T03:12:27.225Z,4.97
2018-08-22T03:17:30.754Z,4.57
2018-08-22T03:22:34.521Z,5.40
2018-08-22T03:27:38.223Z,3.53
2018-08-22T03:32:41.753Z,3.37
2018-08-22T03:37:45.306Z,4.07
2018-08-22T03:42:48.809Z,3.47
2018-08-22T03:47:52.354Z,6.60
2018-08-22T03:52:55.826Z,3.40
2018-08-22T03:58:00.041Z,3.73
2018-08-22T04:03:03.524Z,3.37
2018-08-22T04:08:07.370Z,4.33
2018-08-22T04:13:11.588Z,3.63
2018-08-22T04:18:15.123Z,4.50
2018-08-22T04:23:18.926Z,3.63
2018-08-22T04:28:22.479Z,4.47
2018-08-22T04:33:26.078Z,4.30
2018-08-22T04:38:29.893Z,4.63
2018-08-22T04:43:34.189Z,6.93
2018-08-22T04:48:37.765Z,8.73
2018-08-22T04:53:41.313Z,4.23
2018-08-22T04:58:44.866Z,4.63
2018-08-22T05:03:48.500Z,4.25
2018-08-22T05:08:53.277Z,4.67
2018-08-22T05:13:56.760Z,4.37
2018-08-22T05:19:00.324Z,4.00
2018-08-22T05:24:03.868Z,5.00
2018-08-22T05:29:07.426Z,4.00
2018-08-22T05:34:11.162Z,5.10
2018-08-22T05:39:14.782Z,4.47
2018-08-22T05:44:18.626Z,4.07
2018-08-22T05:49:22.241Z,5.43
2018-08-22T05:54:25.833Z,4.70
2018-08-22T05:59:29.477Z,16.27
2018-08-22T06:04:33.107Z,5.03
2018-08-22T06:09:36.641Z,5.33
2018-08-22T06:14:40.485Z,4.60
2018-08-22T06:19:44.055Z,5.03
2018-08-22T06:24:47.807Z,5.57
2018-08-22T06:29:51.347Z,4.00
2018-08-22T06:34:54.839Z,5.57
2018-08-22T06:39:58.381Z,5.43
2018-08-22T06:45:01.918Z,5.07
2018-08-22T06:50:05.609Z,7.33
2018-08-22T06:55:09.316Z,6.80
2018-08-22T07:00:14.938Z,5.77
2018-08-22T07:05:18.458Z,8.20
2018-08-22T07:10:22.024Z,6.03
2018-08-22T07:15:25.637Z,4.80
2018-08-22T07:20:29.352Z,7.33
2018-08-22T07:25:32.918Z,6.50
2018-08-22T07:30:36.865Z,8.43
2018-08-22T07:35:40.600Z,5.50
2018-08-22T07:40:44.182Z,8.33
2018-08-22T07:45:47.826Z,10.13
2018-08-22T07:50:51.662Z,4.43
2018-08-22T07:55:55.222Z,4.50
2018-08-22T08:00:58.888Z,5.63
2018-08-22T08:06:02.416Z,6.83
2018-08-22T08:11:06.177Z,6.83
2018-08-22T08:16:09.761Z,5.20
2018-08-22T08:21:14.128Z,6.97
2018-08-22T08:26:17.765Z,6.33
2018-08-22T08:31:21.962Z,4.80
2018-08-22T08:36:25.520Z,5.17
2018-08-22T08:41:29.090Z,5.37
2018-08-22T08:46:32.652Z,5.40
2018-08-22T08:51:42.164Z,8.87
2018-08-22T08:56:45.733Z,6.93
2018-08-22T09:01:49.228Z,8.17
2018-08-22T09:06:52.761Z,4.97
2018-08-22T09:11:59.553Z,3.93
2018-08-22T09:17:03.113Z,3.57
2018-08-22T09:22:06.797Z,9.47
2018-08-22T09:27:10.337Z,4.00
2018-08-22T09:32:13.841Z,6.30
2018-08-22T09:37:17.592Z,4.27
2018-08-22T09:42:21.151Z,3.37
2018-08-22T09:47:25.034Z,8.23
2018-08-22T09:52:28.563Z,6.90
2018-08-22T09:57:32.347Z,3.10
2018-08-22T10:02:36.014Z,3.07
2018-08-22T10:07:39.548Z,4.87
2018-08-22T10:12:43.299Z,4.30
2018-08-22T10:17:46.848Z,5.07
2018-08-22T10:22:50.360Z,5.23
2018-08-22T10:27:54.206Z,4.20
2018-08-22T10:32:57.791Z,3.70
2018-08-22T10:38:01.276Z,4.57
2018-08-22T10:43:04.789Z,4.60
2018-08-22T10:48:08.380Z,4.30
2018-08-22T10:53:21.277Z,11.13
2018-08-22T10:58:24.813Z,4.53
2018-08-22T11:03:28.894Z,4.47
2018-08-22T11:08:32.480Z,4.80
2018-08-22T11:13:36.015Z,5.10
2018-08-22T11:18:39.941Z,5.07
2018-08-22T11:24:09.148Z,5.10
2018-08-22T11:29:24.142Z,6.10
2018-08-22T11:34:38.927Z,4.17
2018-08-22T11:39:44.884Z,6.13
2018-08-22T11:44:48.421Z,5.07
2018-08-22T11:49:52.080Z,5.90
2018-08-22T11:55:11.671Z,4.53
2018-08-22T12:00:26.764Z,4.83
2018-08-22T12:05:30.425Z,4.07
2018-08-22T12:10:34.037Z,5.10
2018-08-22T12:15:37.645Z,6.03
2018-08-22T12:20:41.281Z,4.20
2018-08-22T12:25:45.329Z,6.60
2018-08-22T12:30:48.891Z,5.53
2018-08-22T12:35:53.326Z,5.30
2018-08-22T12:40:56.883Z,4.37
2018-08-22T12:46:00.413Z,4.40
2018-08-22T12:51:04.564Z,5.43
2018-08-22T12:56:08.123Z,6.37
2018-08-22T13:01:11.670Z,5.57
2018-08-22T13:06:15.922Z,5.17
2018-08-22T13:11:19.471Z,6.50
2018-08-22T13:16:23.018Z,4.67
2018-08-22T13:21:26.511Z,6.30
2018-08-22T13:26:30.350Z,5.40
2018-08-22T13:31:34.046Z,4.20
2018-08-22T13:36:37.492Z,6.00
2018-08-22T13:41:41.013Z,7.50
2018-08-22T13:46:44.626Z,4.97
2018-08-22T13:51:48.274Z,5.73
2018-08-22T13:56:51.810Z,8.37
2018-08-22T14:01:55.540Z,4.70
2018-08-22T14:06:59.862Z,4.77
2018-08-22T14:12:03.397Z,5.00
2018-08-22T14:17:07.242Z,5.50
2018-08-22T14:22:10.813Z,4.93
2018-08-22T14:27:14.635Z,5.47
2018-08-22T14:32:18.222Z,5.63
2018-08-22T14:37:21.716Z,5.33
2018-08-22T14:42:25.824Z,5.63
2018-08-22T14:47:30.193Z,6.63
2018-08-22T14:52:33.778Z,6.33
2018-08-22T14:57:37.315Z,5.87
2018-08-22T15:02:41.194Z,5.20
2018-08-22T15:07:44.566Z,5.40
2018-08-22T15:12:48.724Z,5.17
2018-08-22T15:17:52.144Z,5.00
2018-08-22T15:22:55.689Z,9.30
2018-08-22T15:27:59.475Z,8.47
2018-08-22T15:33:03.575Z,7.10
2018-08-22T15:38:07.159Z,6.10
2018-08-22T15:43:11.642Z,6.10
2018-08-22T15:48:15.281Z,5.07
2018-08-22T15:53:18.943Z,7.20
2018-08-22T15:58:22.533Z,5.97
2018-08-22T16:03:26.797Z,6.13
2018-08-22T16:08:31.733Z,5.07
2018-08-22T16:13:35.521Z,6.27
2018-08-22T16:18:39.353Z,5.87
2018-08-22T16:23:42.938Z,12.47
2018-08-22T16:28:54.937Z,10.40
2018-08-22T16:33:59.189Z,5.00
2018-08-22T16:39:02.935Z,5.47
2018-08-22T16:44:06.826Z,6.57
2018-08-22T16:49:10.403Z,5.37
2018-08-22T16:54:14.121Z,5.80
2018-08-22T16:59:17.764Z,4.77
2018-08-22T17:04:21.339Z,4.80
2018-08-22T17:09:24.914Z,4.53
2018-08-22T17:14:28.782Z,5.40
2018-08-22T17:19:32.269Z,8.47
2018-08-22T17:24:35.818Z,7.97
2018-08-22T17:29:39.533Z,6.43
2018-08-22T17:34:43.081Z,7.50
2018-08-22T17:39:46.623Z,5.80
2018-08-22T17:44:50.612Z,4.63
2018-08-22T17:50:06.972Z,5.90
2018-08-22T17:55:10.936Z,6.63
2018-08-22T18:00:17.237Z,5.60
2018-08-22T18:05:20.809Z,6.83
2018-08-22T18:10:24.646Z,8.60
2018-08-22T18:15:28.179Z,7.27
2018-08-22T18:20:32.912Z,8.23
2018-08-22T18:25:40.561Z,7.03
2018-08-22T18:30:44.534Z,6.30
2018-08-22T18:35:48.084Z,6.40
2018-08-22T18:41:02.993Z,7.20
2018-08-22T18:46:07.876Z,7.77
2018-08-22T18:51:11.537Z,7.53
2018-08-22T18:56:17.327Z,7.43
2018-08-22T19:01:21.450Z,12.83
2018-08-22T19:06:25.122Z,8.87
2018-08-22T19:11:28.680Z,9.13
2018-08-22T19:16:37.428Z,8.33
2018-08-22T19:21:40.969Z,8.77
2018-08-22T19:26:44.549Z,8.70
2018-08-22T19:31:53.537Z,9.97
2018-08-22T19:36:57.331Z,9.87
2018-08-22T19:42:00.895Z,10.37
2018-08-22T19:47:04.453Z,12.10
2018-08-22T19:52:07.943Z,10.83
2018-08-22T19:57:12.234Z,12.20
2018-08-22T20:02:16.090Z,12.17
2018-08-22T20:07:19.673Z,12.27
2018-08-22T20:12:33.623Z,14.30
2018-08-22T20:17:37.182Z,12.37
2018-08-22T20:22:45.870Z,11.87
2018-08-22T20:27:49.413Z,14.90
2018-08-22T20:32:59.447Z,16.20
2018-08-22T20:38:04.529Z,13.00
2018-08-22T20:43:30.423Z,15.10
2018-08-22T20:48:33.973Z,15.60
2018-08-22T20:53:37.732Z,14.60
2018-08-22T20:58:42.772Z,17.00
2018-08-22T21:03:46.426Z,18.37
2018-08-22T21:08:51.238Z,17.33
2018-08-22T21:13:54.971Z,18.63
2018-08-22T21:18:58.572Z,17.20
2018-08-22T21:24:02.085Z,17.27
2018-08-22T21:29:05.847Z,17.07
2018-08-22T21:34:14.847Z,16.00
2018-08-22T21:39:23.900Z,22.87
2018-08-22T21:44:27.874Z,19.13
2018-08-22T21:49:31.509Z,20.53
2018-08-22T21:54:35.967Z,21.93
2018-08-22T21:59:39.701Z,22.53
2018-08-22T22:04:43.481Z,24.20
2018-08-22T22:09:47.061Z,25.17
2018-08-22T22:14:50.723Z,24.83
2018-08-22T22:19:54.298Z,26.90
2018-08-22T22:25:04.136Z,25.93
2018-08-22T22:30:09.998Z,29.43
2018-08-22T22:35:15.238Z,27.30
2018-08-22T22:40:21.373Z,26.83
2018-08-22T22:45:24.869Z,29.37
2018-08-22T22:50:28.443Z,26.87
2018-08-22T22:55:32.152Z,28.83
2018-08-22T23:00:37.401Z,28.50
2018-08-22T23:05:41.203Z,32.97
2018-08-22T23:10:44.731Z,32.33
2018-08-22T23:15:48.222Z,33.37
2018-08-22T23:20:52.306Z,35.77
2018-08-22T23:25:58.779Z,34.37
2018-08-22T23:31:02.364Z,36.40
2018-08-22T23:36:06.031Z,38.87
2018-08-22T23:41:09.737Z,35.23
2018-08-22T23:46:14.252Z,38.30
2018-08-22T23:51:17.941Z,38.73
2018-08-22T23:56:25.125Z,39.03
